Time;durP1;ratioP1;P1;durP2;ratioP2;P2;SDS_P1;SDS_P2;PMS_P1;PMS_P2;Temp;Humidity;BMP_temperature;BMP_pressure;BME280_temperature;BME280_humidity;BME280_pressure;Samples;Min_cycle;Max_cycle;Signal;HPM_P1;HPM_P2
2022/05/01 00:02:05;;;;;;;5.28;4.43;;;;;;;11.83;71.56;95425.50;5064190;28;20216;-74
2022/05/01 00:04:32;;;;;;;3.83;3.63;;;;;;;11.91;71.14;95426.06;5065665;28;20251;-74
2022/05/01 00:06:58;;;;;;;4.50;3.67;;;;;;;11.92;70.89;95427.75;5064281;28;20782;-73
2022/05/01 00:09:25;;;;;;;4.50;4.10;;;;;;;11.75;71.53;95419.78;5061236;28;20199;-76
2022/05/01 00:11:53;;;;;;;4.72;4.32;;;;;;;11.79;71.39;95412.03;5065414;28;20206;-74
2022/05/01 00:14:20;;;;;;;6.47;4.28;;;;;;;11.67;71.67;95422.56;5062293;28;20668;-73
2022/05/01 00:16:49;;;;;;;7.38;4.32;;;;;;;-142.91;100.00;56616.03;5064249;28;20202;-74
2022/05/01 00:19:16;;;;;;;4.68;4.07;;;;;;;11.57;nan;95406.78;5063219;28;20194;-75
2022/05/01 00:21:42;;;;;;;3.88;3.58;;;;;;;11.67;nan;95406.47;5063925;28;20217;-74
2022/05/01 00:24:09;;;;;;;3.95;3.75;;;;;;;11.53;nan;95405.22;5062324;28;20330;-73
2022/05/01 00:26:36;;;;;;;4.32;4.03;;;;;;;11.44;nan;95405.50;5061878;28;20725;-74
2022/05/01 00:29:05;;;;;;;4.45;4.15;;;;;;;11.42;nan;95397.06;5063885;28;20233;-75
2022/05/01 00:31:32;;;;;;;4.22;4.03;;;;;;;11.42;nan;95398.78;5061213;28;20794;-73
2022/05/01 00:36:43;;;;;;;5.10;4.80;;;;;;;11.08;nan;95406.63;5062980;28;20441;-75
2022/05/01 00:39:10;;;;;;;17.35;7.80;;;;;;;11.05;nan;95399.09;5057221;28;20674;-74
2022/05/01 00:41:39;;;;;;;5.78;5.35;;;;;;;10.94;nan;95403.66;5061754;28;20206;-77
2022/05/01 00:44:09;;;;;;;7.32;5.45;;;;;;;11.05;nan;95406.72;5063052;28;20348;-76
2022/05/01 00:46:38;;;;;;;6.05;5.40;;;;;;;10.69;nan;95376.41;5064405;28;20198;-74
2022/05/01 00:49:08;;;;;;;19.58;6.18;;;;;;;10.79;nan;95405.78;5062120;28;20244;-73
2022/05/01 00:51:39;;;;;;;7.22;6.53;;;;;;;10.71;nan;95391.59;5060054;28;21143;-73
2022/05/01 00:54:07;;;;;;;8.38;7.72;;;;;;;10.64;nan;95410.47;5064470;28;20266;-74
2022/05/01 00:56:36;;;;;;;8.85;8.10;;;;;;;10.56;nan;95403.91;5063847;28;20208;-75
2022/05/01 00:59:03;;;;;;;10.63;9.73;;;;;;;10.63;nan;95404.56;5064486;28;20627;-75
2022/05/01 01:01:33;;;;;;;10.48;9.48;;;;;;;10.55;nan;95406.47;5065305;28;20289;-74
2022/05/01 01:04:00;;;;;;;9.50;8.68;;;;;;;10.50;nan;95398.13;5062728;28;20225;-73
2022/05/01 01:06:29;;;;;;;9.18;8.32;;;;;;;10.67;nan;95403.56;5065052;28;20212;-73
2022/05/01 01:08:56;;;;;;;9.85;8.85;;;;;;;10.53;nan;95393.81;5063638;28;20206;-74
2022/05/01 01:11:22;;;;;;;9.65;8.70;;;;;;;10.57;nan;95399.66;5064282;28;20212;-75
2022/05/01 01:13:51;;;;;;;9.05;8.18;;;;;;;10.64;nan;95405.41;5063575;28;20745;-75
2022/05/01 01:16:18;;;;;;;9.88;8.02;;;;;;;10.61;nan;95401.22;5064673;28;20234;-75
2022/05/01 01:18:47;;;;;;;9.85;8.30;;;;;;;10.57;nan;95395.41;5064274;28;20205;-73
2022/05/01 01:21:15;;;;;;;7.85;7.05;;;;;;;10.73;nan;95405.13;5063696;28;20202;-74
2022/05/01 01:23:43;;;;;;;8.73;7.35;;;;;;;10.68;nan;95382.38;5062696;28;20763;-73
2022/05/01 01:26:11;;;;;;;8.80;7.55;;;;;;;10.72;nan;95399.19;5064360;28;20279;-73
2022/05/01 01:28:39;;;;;;;7.38;6.85;;;;;;;10.73;nan;95395.78;5063139;28;20197;-73
2022/05/01 01:33:56;;;;;;;8.98;6.80;;;;;;;10.84;nan;95383.59;5062834;28;20201;-75
2022/05/01 01:36:28;;;;;;;7.88;7.28;;;;;;;10.57;nan;95382.69;5063983;28;20609;-73
2022/05/01 01:38:54;;;;;;;9.65;7.93;;;;;;;10.63;nan;95389.31;5063125;28;20742;-73
2022/05/01 01:41:25;;;;;;;8.45;7.75;;;;;;;10.58;nan;95380.97;5063856;28;20263;-74
2022/05/01 01:43:52;;;;;;;9.43;8.60;;;;;;;10.62;nan;95387.66;5062947;28;20716;-76
2022/05/01 01:46:19;;;;;;;9.70;8.68;;;;;;;10.74;nan;95397.44;5063122;28;20681;-73
2022/05/01 01:48:46;;;;;;;9.82;8.55;;;;;;;10.55;nan;95386.97;5064095;28;20202;-75
2022/05/01 01:51:14;;;;;;;8.98;8.15;;;;;;;10.56;nan;95387.81;5063752;28;20226;-75
2022/05/01 01:53:43;;;;;;;8.85;8.07;;;;;;;10.61;nan;95383.44;5062508;28;21174;-74
2022/05/01 01:56:10;;;;;;;10.55;9.30;;;;;;;10.75;nan;95388.94;5063507;28;20222;-75
2022/05/01 01:58:39;;;;;;;9.57;8.50;;;;;;;10.75;nan;95377.94;5061983;28;20782;-74
2022/05/01 02:01:07;;;;;;;10.77;8.55;;;;;;;10.70;nan;95385.69;5063980;28;20201;-73
2022/05/01 02:03:34;;;;;;;9.82;9.05;;;;;;;10.56;nan;95385.28;5062772;28;20700;-73
2022/05/01 02:06:03;;;;;;;10.82;9.68;;;;;;;10.53;nan;95377.72;5063707;28;20202;-74
2022/05/01 02:08:30;;;;;;;12.73;9.68;;;;;;;10.63;nan;95386.78;5063114;28;20223;-74
2022/05/01 02:10:58;;;;;;;10.25;9.20;;;;;;;10.66;nan;95384.13;5063701;28;20234;-73
2022/05/01 02:13:25;;;;;;;11.73;9.93;;;;;;;10.73;nan;95375.44;5061872;28;20302;-73
2022/05/01 02:15:52;;;;;;;11.00;9.88;;;;;;;10.68;nan;95374.75;5062396;28;20814;-74
2022/05/01 02:18:19;;;;;;;15.13;9.90;;;;;;;10.52;nan;95376.06;5062989;28;20255;-74
2022/05/01 02:23:44;;;;;;;12.88;11.27;;;;;;;10.53;nan;95380.28;4981556;28;20809;-73
2022/05/01 02:26:12;;;;;;;12.43;10.65;;;;;;;10.48;nan;95377.84;4981313;28;20318;-73
2022/05/01 02:28:39;;;;;;;15.90;10.40;;;;;;;10.56;nan;95387.81;5015041;28;20208;-73
2022/05/01 02:31:06;;;;;;;13.32;10.68;;;;;;;10.47;nan;95381.28;5062893;28;20201;-74
2022/05/01 02:33:33;;;;;;;16.83;10.65;;;;;;;10.55;nan;95375.97;5061579;28;20197;-74
2022/05/01 02:35:59;;;;;;;12.02;10.82;;;;;;;10.49;nan;95378.69;5062616;28;20231;-73
2022/05/01 02:38:26;;;;;;;16.17;11.23;;;;;;;10.51;nan;95372.69;5060564;28;20253;-75
2022/05/01 02:40:53;;;;;;;13.52;11.60;;;;;;;10.34;nan;95377.41;5062611;28;20276;-73
2022/05/01 02:43:21;;;;;;;14.05;11.23;;;;;;;10.50;nan;95365.09;5063007;28;20222;-74
2022/05/01 02:45:48;;;;;;;13.05;11.13;;;;;;;10.60;nan;95369.06;5062823;28;20229;-75
2022/05/01 02:48:15;;;;;;;11.25;10.05;;;;;;;10.61;nan;95368.19;5063323;28;20232;-73
2022/05/01 02:50:41;;;;;;;12.27;10.50;;;;;;;10.57;nan;95369.16;5063166;28;20692;-73
2022/05/01 02:53:08;;;;;;;12.20;10.30;;;;;;;10.37;nan;95363.81;5061805;28;20206;-73
2022/05/01 02:55:35;;;;;;;11.85;10.63;;;;;;;10.42;nan;95367.03;5062304;28;20217;-75
2022/05/01 02:58:02;;;;;;;14.27;10.98;;;;;;;10.40;nan;95361.97;5063273;28;20648;-74
2022/05/01 03:00:30;;;;;;;13.05;11.70;;;;;;;10.26;nan;95370.88;5063008;28;20202;-75
2022/05/01 03:02:57;;;;;;;13.13;11.82;;;;;;;10.06;nan;95377.28;5059067;28;20235;-76
2022/05/01 03:05:25;;;;;;;13.52;11.95;;;;;;;10.07;nan;95383.22;5061785;28;20208;-74
2022/05/01 03:07:55;;;;;;;14.93;12.00;;;;;;;10.12;nan;95376.31;5059365;28;20202;-74
2022/05/01 03:10:22;;;;;;;16.38;12.32;;;;;;;10.20;nan;95377.78;5060889;28;20194;-73
2022/05/01 03:12:49;;;;;;;17.63;14.10;;;;;;;10.22;nan;95365.88;5060547;28;20195;-74
2022/05/01 03:15:16;;;;;;;14.35;12.95;;;;;;;10.37;nan;95376.50;5061843;28;22875;-74
2022/05/01 03:23:21;;;;;;;15.40;12.43;;;;;;;10.38;nan;95379.00;5029455;28;20640;-73
2022/05/01 03:25:47;;;;;;;17.17;12.88;;;;;;;10.26;nan;95375.94;5062635;28;20240;-75
2022/05/01 03:28:15;;;;;;;16.05;11.90;;;;;;;10.39;nan;95387.47;5062293;28;20950;-74
2022/05/01 03:30:42;;;;;;;17.33;15.53;;;;;;;10.21;nan;95384.53;5063213;28;20463;-75
2022/05/01 03:33:10;;;;;;;14.85;13.45;;;;;;;10.23;nan;95389.56;5063958;28;20255;-75
2022/05/01 03:35:38;;;;;;;14.70;13.20;;;;;;;10.34;nan;95396.91;5064741;28;20202;-74
2022/05/01 03:38:07;;;;;;;15.23;12.52;;;;;;;10.50;nan;95398.13;5065343;28;20216;-75
2022/05/01 03:40:35;;;;;;;14.30;12.85;;;;;;;10.37;nan;95397.66;5067583;28;20198;-74
2022/05/01 03:43:02;;;;;;;14.65;12.93;;;;;;;10.28;nan;95407.22;5066210;28;20201;-74
2022/05/01 03:45:29;;;;;;;15.65;12.30;;;;;;;10.28;nan;95409.78;5066436;28;20202;-75
2022/05/01 03:47:56;;;;;;;19.65;13.73;;;;;;;10.32;nan;95413.91;5064182;28;20229;-75
2022/05/01 03:50:24;;;;;;;15.02;13.43;;;;;;;10.18;nan;95416.75;5065217;28;21029;-75
2022/05/01 03:52:51;;;;;;;16.73;13.60;;;;;;;10.26;nan;95419.13;5064696;28;20689;-76
2022/05/01 03:55:18;;;;;;;15.35;13.55;;;;;;;10.46;nan;95422.78;5065619;28;20292;-76
2022/05/01 03:57:45;;;;;;;14.98;13.48;;;;;;;10.50;nan;95413.38;5063616;28;20202;-73
2022/05/01 04:00:18;;;;;;;15.35;13.70;;;;;;;10.78;nan;95419.38;5065181;28;20201;-74
2022/05/01 04:02:45;;;;;;;15.23;13.45;;;;;;;10.82;nan;95415.88;5064171;28;20213;-74
2022/05/01 04:05:13;;;;;;;13.63;12.23;;;;;;;11.11;nan;95415.00;5065181;28;20266;-74
2022/05/01 04:07:42;;;;;;;14.18;12.77;;;;;;;11.30;nan;95415.28;5063926;28;20584;-74
2022/05/01 04:10:10;;;;;;;13.82;12.07;;;;;;;11.28;nan;95418.75;5064753;28;20296;-74
2022/05/01 04:12:37;;;;;;;13.82;12.23;;;;;;;11.45;nan;95422.44;5063944;28;20205;-74
2022/05/01 04:15:07;;;;;;;16.55;13.95;;;;;;;11.21;nan;95423.19;5064389;28;20199;-74
2022/05/01 04:17:38;;;;;;;19.42;13.55;;;;;;;11.06;nan;95429.56;5064997;28;20315;-75
2022/05/01 04:20:08;;;;;;;16.05;12.77;;;;;;;11.15;nan;95436.91;5064190;28;22109;-75
2022/05/01 04:22:39;;;;;;;15.70;12.90;;;;;;;11.39;nan;95426.88;5062116;28;20218;-74
2022/05/01 04:25:16;;;;;;;13.90;12.50;;;;;;;11.66;nan;95441.28;5064189;28;20816;-73
2022/05/01 04:27:44;;;;;;;20.95;12.82;;;;;;;11.68;nan;95428.50;5063460;28;20568;-74
2022/05/01 04:30:12;;;;;;;14.80;13.13;;;;;;;11.86;nan;95430.50;5064086;28;20269;-76
2022/05/01 04:32:54;;;;;;;21.25;14.07;;;;;;;11.96;nan;95434.41;5063609;28;20198;-74
2022/05/01 04:35:28;;;;;;;14.40;12.93;;;;;;;12.01;nan;95437.63;5062838;28;20233;-74
2022/05/01 04:37:59;;;;;;;16.30;14.00;;;;;;;12.30;nan;95431.56;5064698;28;20205;-76
2022/05/01 04:40:28;;;;;;;16.50;13.20;;;;;;;12.24;nan;95434.31;5062526;28;20684;-75
2022/05/01 04:43:02;;;;;;;14.40;13.00;;;;;;;12.46;nan;95436.94;5063121;28;20205;-73
2022/05/01 04:45:29;;;;;;;14.13;12.63;;;;;;;12.84;nan;95426.22;5064025;28;20316;-77
2022/05/01 04:47:56;;;;;;;14.55;13.15;;;;;;;12.93;nan;95428.44;5063638;28;20209;-73
2022/05/01 04:50:23;;;;;;;17.52;12.35;;;;;;;12.95;nan;95419.00;5063079;28;20202;-74
2022/05/01 04:52:50;;;;;;;12.70;11.57;;;;;;;13.33;nan;95423.59;5063614;28;20250;-75
2022/05/01 04:55:17;;;;;;;12.95;11.70;;;;;;;13.62;nan;95416.44;5063721;28;20231;-75
2022/05/01 04:57:45;;;;;;;12.98;11.77;;;;;;;13.99;nan;95414.97;5063293;28;20210;-75
2022/05/01 05:00:13;;;;;;;12.38;9.95;;;;;;;14.91;nan;95422.09;5062893;28;20198;-75
2022/05/01 05:02:41;;;;;;;11.05;10.10;;;;;;;15.25;nan;95424.78;5063168;28;20410;-75
2022/05/01 05:05:11;;;;;;;11.48;10.40;;;;;;;16.02;nan;95427.16;5063708;28;20606;-74
2022/05/01 05:07:38;;;;;;;14.65;10.80;;;;;;;15.60;nan;95423.16;5063132;28;20289;-76
2022/05/01 05:10:05;;;;;;;13.63;9.75;;;;;;;15.57;nan;95418.22;5063377;28;20271;-75
2022/05/01 05:12:33;;;;;;;11.60;10.50;;;;;;;16.16;nan;95422.16;5063339;28;20290;-74
2022/05/01 05:15:02;;;;;;;10.90;9.93;;;;;;;16.32;nan;95425.63;5061711;28;20730;-75
2022/05/01 05:17:31;;;;;;;10.55;9.55;;;;;;;15.59;nan;95416.38;5064475;28;20598;-75
2022/05/01 05:19:58;;;;;;;11.00;10.07;;;;;;;16.11;nan;95436.09;5063831;28;20202;-75
2022/05/01 05:22:25;;;;;;;10.80;10.00;;;;;;;16.22;nan;95439.81;5063664;28;20226;-74
2022/05/01 05:24:52;;;;;;;11.07;9.95;;;;;;;16.16;nan;95427.28;5062817;28;20310;-77
2022/05/01 05:27:21;;;;;;;10.75;9.68;;;;;;;15.65;nan;95418.66;5063112;28;20743;-74
2022/05/01 05:29:48;;;;;;;11.23;10.20;;;;;;;15.53;nan;95420.94;5062560;28;20198;-73
2022/05/01 05:32:16;;;;;;;10.07;9.23;;;;;;;15.67;nan;95425.44;5063919;28;20678;-75
2022/05/01 05:34:43;;;;;;;13.60;9.30;;;;;;;16.38;nan;95429.59;5062388;28;20579;-74
2022/05/01 05:37:10;;;;;;;10.93;9.82;;;;;;;17.17;nan;95434.94;5062639;28;20283;-74
2022/05/01 05:39:36;;;;;;;10.20;9.20;;;;;;;16.92;nan;95428.53;5063608;28;20639;-74
2022/05/01 05:42:04;;;;;;;9.88;8.98;;;;;;;17.16;nan;95431.53;5063083;28;20228;-75
2022/05/01 05:44:30;;;;;;;9.65;8.82;;;;;;;18.24;nan;95428.09;5062692;28;20322;-75
2022/05/01 05:46:57;;;;;;;9.27;8.48;;;;;;;18.49;nan;95421.53;5063532;28;20793;-75
2022/05/01 05:49:25;;;;;;;9.52;8.50;;;;;;;18.46;nan;95424.28;5062129;28;20210;-74
2022/05/01 05:51:52;;;;;;;10.13;9.23;;;;;;;18.25;nan;95419.47;5062915;28;20259;-75
2022/05/01 05:54:19;;;;;;;8.50;7.82;;;;;;;18.73;nan;95424.44;5061365;28;20299;-74
2022/05/01 05:56:46;;;;;;;9.02;8.13;;;;;;;19.23;nan;95421.34;5063503;28;20226;-75
2022/05/01 05:59:13;;;;;;;8.43;7.78;;;;;;;19.80;nan;95423.78;5060815;28;20290;-75
2022/05/01 06:01:39;;;;;;;8.95;8.25;;;;;;;19.85;nan;95426.91;5063117;28;20292;-74
2022/05/01 06:04:06;;;;;;;7.95;7.35;;;;;;;19.77;nan;95432.56;5061522;28;20348;-74
2022/05/01 06:06:34;;;;;;;8.40;7.35;;;;;;;18.97;nan;95421.19;5063546;28;20263;-74
2022/05/01 06:09:01;;;;;;;7.95;7.32;;;;;;;19.33;nan;95430.97;5063406;28;20212;-74
2022/05/01 06:11:28;;;;;;;7.40;6.90;;;;;;;19.16;nan;95428.63;5062618;28;20212;-76
2022/05/01 06:13:55;;;;;;;8.55;7.85;;;;;;;19.86;nan;95433.72;5063508;28;20240;-76
2022/05/01 06:16:21;;;;;;;7.85;7.32;;;;;;;20.71;nan;95412.63;5062812;28;20211;-74
2022/05/01 06:18:48;;;;;;;7.85;7.28;;;;;;;20.63;nan;95426.03;5062417;28;20197;-74
2022/05/01 06:21:15;;;;;;;9.00;7.75;;;;;;;20.42;nan;95432.63;5063392;28;20768;-76
2022/05/01 06:23:45;;;;;;;7.82;7.28;;;;;;;20.37;nan;95427.78;5061854;28;20226;-75
2022/05/01 06:26:12;;;;;;;8.07;7.28;;;;;;;19.94;nan;95431.47;5061291;28;21371;-74
2022/05/01 06:28:39;;;;;;;7.55;6.95;;;;;;;19.34;nan;95424.91;5062511;28;20216;-75
2022/05/01 06:31:07;;;;;;;6.75;6.35;;;;;;;20.61;nan;95421.91;5062918;28;20201;-76
2022/05/01 06:33:36;;;;;;;7.78;7.25;;;;;;;20.21;nan;95434.03;5063303;28;20245;-74
2022/05/01 06:36:04;;;;;;;9.10;7.38;;;;;;;19.86;nan;95433.72;5061515;28;20255;-76
2022/05/01 06:38:31;;;;;;;7.50;7.00;;;;;;;19.31;nan;95430.25;5060900;28;22056;-75
2022/05/01 06:40:59;;;;;;;7.00;6.60;;;;;;;19.09;nan;95436.81;5063030;28;20202;-75
2022/05/01 06:43:27;;;;;;;7.22;6.63;;;;;;;19.08;nan;95428.25;5074872;28;20205;-74
2022/05/01 06:45:54;;;;;;;8.05;7.18;;;;;;;18.95;nan;95430.78;5070672;28;20232;-74
2022/05/01 06:48:21;;;;;;;7.47;6.97;;;;;;;18.86;nan;95430.47;5071488;28;20661;-75
2022/05/01 06:50:48;;;;;;;8.13;7.43;;;;;;;19.07;nan;95424.03;5070431;28;20265;-75
2022/05/01 06:53:16;;;;;;;7.05;6.60;;;;;;;19.73;nan;95423.38;5072198;28;20210;-74
2022/05/01 06:55:43;;;;;;;6.82;6.43;;;;;;;19.03;nan;95428.56;5071125;28;20691;-75
2022/05/01 06:58:11;;;;;;;6.72;6.32;;;;;;;18.69;nan;95431.50;5071964;28;20201;-74
2022/05/01 07:00:38;;;;;;;7.47;6.88;;;;;;;18.85;nan;95431.41;5071247;28;20227;-75
2022/05/01 07:03:05;;;;;;;7.13;6.53;;;;;;;18.57;nan;95415.00;5074159;28;20197;-74
2022/05/01 07:05:31;;;;;;;6.65;6.25;;;;;;;18.55;nan;95427.16;5074320;28;20383;-76
2022/05/01 07:07:58;;;;;;;7.00;6.50;;;;;;;18.65;nan;95422.31;5075890;28;20843;-77
2022/05/01 07:10:25;;;;;;;7.80;7.10;;;;;;;18.45;nan;95415.72;5075760;28;20205;-74
2022/05/01 07:12:52;;;;;;;9.48;6.90;;;;;;;19.16;nan;95417.50;5075642;28;20698;-75
2022/05/01 07:15:20;;;;;;;7.45;6.78;;;;;;;19.39;nan;95419.47;5074869;28;20274;-75
2022/05/01 07:17:47;;;;;;;6.97;6.32;;;;;;;19.12;nan;95418.59;5073906;28;20198;-74
2022/05/01 07:20:13;;;;;;;7.15;6.53;;;;;;;18.89;nan;95425.97;5075732;28;20202;-74
2022/05/01 07:22:40;;;;;;;7.15;6.68;;;;;;;18.43;nan;95427.84;5075124;28;20714;-75
2022/05/01 07:25:08;;;;;;;8.02;7.35;;;;;;;18.69;nan;95428.94;5075331;28;20233;-76
2022/05/01 07:27:34;;;;;;;7.97;7.15;;;;;;;18.85;nan;95427.09;5074650;28;20271;-74
2022/05/01 07:30:01;;;;;;;7.00;6.40;;;;;;;18.73;nan;95424.44;5075491;28;20201;-75
2022/05/01 07:32:29;;;;;;;7.25;6.65;;;;;;;18.86;nan;95421.00;5075631;28;20589;-74
2022/05/01 07:34:56;;;;;;;6.43;6.03;;;;;;;18.55;nan;95421.19;5072474;28;20241;-79
2022/05/01 07:37:24;;;;;;;6.20;5.68;;;;;;;18.43;nan;95424.47;5074713;28;20566;-75
2022/05/01 07:39:54;;;;;;;7.18;5.88;;;;;;;18.39;nan;95421.22;5072800;28;20198;-74
2022/05/01 07:42:22;;;;;;;6.82;6.43;;;;;;;18.33;nan;95424.97;5073261;28;20660;-74
2022/05/01 07:44:49;;;;;;;5.50;5.07;;;;;;;18.24;nan;95412.66;5059452;28;20869;-74
2022/05/01 07:47:16;;;;;;;5.53;5.13;;;;;;;18.51;nan;95417.94;5058836;28;20220;-73
2022/05/01 07:49:44;;;;;;;10.93;4.50;;;;;;;18.51;nan;95424.84;5060937;28;20190;-73
2022/05/01 07:52:11;;;;;;;6.97;6.38;;;;;;;18.36;nan;95419.66;5061195;28;20209;-75
2022/05/01 07:54:38;;;;;;;7.10;6.60;;;;;;;18.32;nan;95420.75;5062583;28;21911;-75
2022/05/01 07:57:07;;;;;;;5.80;5.40;;;;;;;18.47;nan;95418.22;5061677;28;20221;-74
2022/05/01 07:59:33;;;;;;;9.82;6.38;;;;;;;18.18;nan;95413.03;5062350;28;20263;-74
2022/05/01 08:02:00;;;;;;;7.70;7.07;;;;;;;18.13;nan;95420.16;5062765;28;20234;-74
2022/05/01 08:04:28;;;;;;;5.68;5.38;;;;;;;18.19;nan;95414.69;5060544;28;20295;-74
2022/05/01 08:06:58;;;;;;;5.88;5.40;;;;;;;17.78;nan;95411.91;5063893;28;20205;-75
2022/05/01 08:09:25;;;;;;;6.30;5.80;;;;;;;17.59;nan;95419.75;5058311;28;20262;-75
2022/05/01 08:11:52;;;;;;;6.45;5.80;;;;;;;17.59;nan;95419.75;5062497;28;20205;-74
2022/05/01 08:14:20;;;;;;;5.28;4.97;;;;;;;17.78;nan;95429.91;5061986;28;21456;-75
2022/05/01 08:16:47;;;;;;;5.13;4.80;;;;;;;17.77;nan;95417.13;5058518;28;20592;-74
2022/05/01 08:22:00;;;;;;;5.65;5.18;;;;;;;18.14;nan;95396.09;5060877;28;20258;-75
2022/05/01 08:24:27;;;;;;;5.47;5.07;;;;;;;18.46;nan;95395.97;5059586;28;20615;-75
2022/05/01 08:26:54;;;;;;;5.13;4.60;;;;;;;18.90;nan;95391.59;5059850;28;20279;-76
2022/05/01 08:29:20;;;;;;;12.63;10.57;;;;;;;19.00;nan;95397.84;5058000;28;20201;-72
2022/05/01 08:31:47;;;;;;;7.50;5.57;;;;;;;18.93;nan;95399.13;5062037;28;20304;-76
2022/05/01 08:34:14;;;;;;;28.20;20.65;;;;;;;18.29;nan;95389.25;5061310;28;20217;-73
2022/05/01 08:36:41;;;;;;;10.85;9.93;;;;;;;18.21;nan;95389.69;5060727;28;20189;-75
2022/05/01 08:39:10;;;;;;;17.60;15.55;;;;;;;18.18;nan;95389.88;5061863;28;20696;-74
2022/05/01 08:41:37;;;;;;;11.40;4.88;;;;;;;17.91;nan;95386.31;5059183;28;20198;-72
2022/05/01 08:44:05;;;;;;;5.43;4.97;;;;;;;18.41;nan;95382.53;5062792;28;20239;-74
2022/05/01 08:46:56;;;;;;;5.00;4.60;;;;;;;18.52;nan;95380.19;5063785;28;20238;-75
2022/05/01 08:49:23;;;;;;;4.60;4.35;;;;;;;18.51;nan;95373.38;5063301;28;20198;-76
2022/05/01 08:51:52;;;;;;;4.40;4.00;;;;;;;18.55;nan;95385.16;5064002;28;20206;-76
2022/05/01 08:54:21;;;;;;;4.00;3.80;;;;;;;18.50;nan;95380.25;5061988;28;20618;-77
2022/05/01 08:56:48;;;;;;;4.68;4.38;;;;;;;18.59;nan;95378.88;5060655;28;20311;-75
2022/05/01 08:59:17;;;;;;;4.10;3.70;;;;;;;18.46;nan;95375.38;5064001;28;20228;-74
2022/05/01 09:01:46;;;;;;;3.42;3.22;;;;;;;18.77;nan;95364.13;5061620;28;20713;-74
2022/05/01 09:04:14;;;;;;;3.38;3.17;;;;;;;18.52;nan;95370.72;5060571;28;20198;-75
2022/05/01 09:06:43;;;;;;;2.75;2.63;;;;;;;18.52;nan;95381.00;5063054;28;20233;-74
2022/05/01 09:09:16;;;;;;;5.00;3.25;;;;;;;18.83;nan;95374.84;5060525;28;20230;-75
2022/05/01 09:14:29;;;;;;;3.15;2.97;;;;;;;19.26;nan;95362.72;5061104;28;20593;-74
2022/05/01 09:17:17;;;;;;;2.78;2.58;;;;;;;19.05;nan;95358.09;5057444;28;20198;-73
2022/05/01 09:19:47;;;;;;;2.70;2.50;;;;;;;18.41;nan;95356.81;5059442;28;20884;-75
2022/05/01 09:22:15;;;;;;;3.33;3.13;;;;;;;18.52;nan;95339.00;5061831;28;20229;-76
2022/05/01 09:24:42;;;;;;;3.00;2.80;;;;;;;18.74;nan;95344.53;5055199;28;20829;-76
2022/05/01 09:30:15;;;;;;;2.85;2.70;;;;;;;18.97;38.03;95343.09;5055503;27;20554;-74
2022/05/01 09:32:43;;;;;;;4.20;2.42;;;;;;;19.27;38.20;95337.78;5054593;28;20205;-75
2022/05/01 09:35:15;;;;;;;2.75;2.45;;;;;;;18.96;36.99;95344.84;5054203;28;20229;-76
2022/05/01 09:37:42;;;;;;;3.33;2.22;;;;;;;19.10;37.78;95335.44;5056680;28;20671;-75
2022/05/01 09:40:10;;;;;;;4.55;2.80;;;;;;;19.51;37.21;95330.28;5055768;28;20399;-78
2022/05/01 09:42:37;;;;;;;4.30;2.58;;;;;;;19.63;36.87;95329.47;5068254;28;20201;-76
2022/05/01 09:45:08;;;;;;;2.60;2.50;;;;;;;19.83;36.76;95320.44;5069606;28;20206;-75
2022/05/01 09:47:38;;;;;;;2.58;2.47;;;;;;;19.56;36.85;95316.16;5056168;28;20282;-74
2022/05/01 09:50:06;;;;;;;4.13;2.70;;;;;;;19.42;37.41;95305.06;5056270;28;21091;-74
2022/05/01 09:52:56;;;;;;;22.35;16.98;;;;;;;19.52;37.89;95322.44;5057562;28;20211;-76
2022/05/01 09:55:23;;;;;;;3.25;3.05;;;;;;;19.21;36.93;95326.13;5055427;28;20306;-73
2022/05/01 09:58:07;;;;;;;2.35;2.15;;;;;;;19.40;36.35;95312.88;5057029;28;20949;-73
2022/05/01 10:00:51;;;;;;;6.97;3.97;;;;;;;19.58;35.23;95306.56;5058379;28;20251;-73
2022/05/01 10:03:28;;;;;;;2.10;2.00;;;;;;;20.21;33.37;95305.81;5060976;28;20267;-74
2022/05/01 10:06:14;;;;;;;2.60;2.40;;;;;;;20.53;33.84;95297.69;5058340;28;20209;-75
2022/05/01 10:08:43;;;;;;;5.10;2.25;;;;;;;19.99;34.09;95305.59;5060355;28;20260;-71
2022/05/01 10:11:17;;;;;;;4.13;2.20;;;;;;;19.76;34.27;95298.56;5059709;28;20209;-74
2022/05/01 10:13:45;;;;;;;2.10;1.90;;;;;;;19.81;35.13;95302.47;5057500;28;20208;-72
2022/05/01 10:16:15;;;;;;;2.15;2.05;;;;;;;19.97;34.20;95287.66;5059395;28;20259;-75
2022/05/01 10:18:45;;;;;;;30.48;20.55;;;;;;;20.11;34.16;95286.72;5057181;28;20694;-73
2022/05/01 10:21:13;;;;;;;51.15;36.90;;;;;;;20.63;34.06;95278.00;5056894;28;20662;-74
2022/05/01 10:23:42;;;;;;;3.28;3.10;;;;;;;19.89;34.37;95283.91;5046057;28;20223;-78
2022/05/01 10:26:15;;;;;;;2.90;2.30;;;;;;;19.76;34.88;95272.78;5034027;28;20207;-75
2022/05/01 10:29:35;;;;;;;2.88;2.55;;;;;;;19.76;35.64;95273.59;5035787;28;20275;-75
2022/05/01 10:32:33;;;;;;;2.88;2.53;;;;;;;20.22;35.40;95271.34;4973708;28;20288;-76
2022/05/01 10:35:29;;;;;;;2.58;2.42;;;;;;;20.48;34.61;95266.19;5037053;28;20195;-78
2022/05/01 10:38:07;;;;;;;6.13;2.58;;;;;;;19.94;35.07;95261.22;5035283;28;20762;-75
2022/05/01 10:40:39;;;;;;;2.30;2.20;;;;;;;19.55;36.17;95273.25;5026269;28;20206;-74
2022/05/01 10:43:25;;;;;;;2.55;2.45;;;;;;;19.46;36.38;95270.44;5024760;28;20302;-75
2022/05/01 10:45:53;;;;;;;2.42;2.33;;;;;;;19.69;35.86;95262.03;5022967;28;20222;-75
2022/05/01 10:48:30;;;;;;;2.92;2.83;;;;;;;19.81;35.50;95253.47;5023357;28;20241;-74
2022/05/01 10:51:41;;;;;;;2.55;2.35;;;;;;;20.15;34.74;95241.72;5024996;28;20724;-74
2022/05/01 10:54:35;;;;;;;3.45;2.60;;;;;;;20.08;35.20;95245.63;5024826;28;20214;-75
2022/05/01 10:57:13;;;;;;;2.25;2.15;;;;;;;20.23;34.76;95225.72;5023534;28;20681;-76
2022/05/01 10:59:44;;;;;;;2.15;2.03;;;;;;;19.85;34.85;95241.19;5024339;28;20570;-75
2022/05/01 11:02:25;;;;;;;3.22;2.92;;;;;;;20.07;35.83;95251.72;5024821;28;20200;-76
2022/05/01 11:04:54;;;;;;;2.30;2.15;;;;;;;20.04;35.91;95239.06;5023190;28;20210;-74
2022/05/01 11:07:24;;;;;;;2.33;2.22;;;;;;;20.15;35.08;95228.81;5023888;28;20936;-75
2022/05/01 11:09:51;;;;;;;2.25;2.15;;;;;;;20.18;35.26;95218.28;5022833;28;20326;-75
2022/05/01 11:12:21;;;;;;;3.05;2.78;;;;;;;20.43;35.05;95224.38;5019961;28;20232;-74
2022/05/01 11:14:52;;;;;;;2.53;2.13;;;;;;;20.09;35.23;95228.41;5020858;28;21021;-75
2022/05/01 11:17:30;;;;;;;2.17;2.08;;;;;;;20.21;34.57;95220.66;5020819;28;20208;-76
2022/05/01 11:20:05;;;;;;;4.65;2.28;;;;;;;20.06;35.47;95229.44;5019920;28;20714;-75
2022/05/01 11:22:33;;;;;;;2.58;2.47;;;;;;;19.78;34.52;95198.72;5022890;28;20287;-74
2022/05/01 11:25:00;;;;;;;2.78;2.58;;;;;;;20.22;34.89;95209.41;5021403;28;20284;-76
2022/05/01 11:27:27;;;;;;;2.67;2.38;;;;;;;20.41;34.05;95216.72;5017672;28;20206;-74
2022/05/01 11:30:22;;;;;;;2.28;2.17;;;;;;;20.17;34.62;95211.47;5020059;28;20312;-74
2022/05/01 11:32:51;;;;;;;2.50;2.20;;;;;;;20.13;34.73;95210.03;5017484;28;20993;-77
2022/05/01 11:35:19;;;;;;;2.75;2.55;;;;;;;20.11;35.35;95206.72;5021344;28;20229;-76
2022/05/01 11:38:08;;;;;;;2.45;2.20;;;;;;;19.78;35.52;95203.88;5018867;28;20203;-74
2022/05/01 11:40:35;;;;;;;3.55;2.40;;;;;;;19.61;36.17;95210.97;5020283;28;20590;-74
2022/05/01 11:43:19;;;;;;;4.90;2.10;;;;;;;19.68;35.52;95209.66;5019851;28;20203;-75
2022/05/01 11:45:47;;;;;;;1.75;1.73;;;;;;;20.12;35.64;95198.06;5021521;28;20215;-75
2022/05/01 11:48:14;;;;;;;4.82;1.95;;;;;;;19.96;36.50;95189.72;5019853;28;20208;-77
2022/05/01 11:50:43;;;;;;;2.55;2.10;;;;;;;20.02;36.67;95200.47;5020634;28;20967;-73
2022/05/01 11:53:19;;;;;;;1.80;1.70;;;;;;;19.55;37.02;95201.06;5021341;28;20202;-76
2022/05/01 12:04:30;;;;;;;12.00;10.70;;;;;;;19.48;37.78;95158.56;5020265;28;20213;-74
2022/05/01 12:06:58;;;;;;;2.47;2.30;;;;;;;19.69;36.84;95175.19;5019809;28;20748;-75
2022/05/01 12:09:27;;;;;;;2.45;2.35;;;;;;;19.50;36.60;95179.94;5019595;28;20231;-74
2022/05/01 12:11:54;;;;;;;2.63;2.22;;;;;;;19.41;37.16;95175.34;5020399;28;20214;-74
2022/05/01 12:14:21;;;;;;;3.20;2.08;;;;;;;19.34;37.41;95164.63;5023210;28;20230;-75
2022/05/01 12:16:48;;;;;;;2.50;2.35;;;;;;;19.63;37.45;95160.13;5021585;28;21073;-75
2022/05/01 12:19:15;;;;;;;3.20;3.00;;;;;;;19.98;37.15;95157.75;5019757;28;20340;-75
2022/05/01 12:21:43;;;;;;;2.00;1.90;;;;;;;19.81;36.90;95160.63;5023207;28;20195;-76
2022/05/01 12:24:12;;;;;;;2.30;2.20;;;;;;;19.76;37.43;95161.91;5020642;28;20710;-74